Time;durP1;ratioP1;P1;durP2;ratioP2;P2;SDS_P1;SDS_P2;PMS_P1;PMS_P2;Temp;Humidity;BMP_temperature;BMP_pressure;BME280_temperature;BME280_humidity;BME280_pressure;Samples;Min_cycle;Max_cycle;Signal;HPM_P1;HPM_P2
2023/05/30 00:01:22;;;;;;;13.80;3.70;;;;;;;;;;5011019;28;20049;-60
2023/05/30 00:03:49;;;;;;;16.42;3.38;;;;;;;;;;5003381;28;20490;-60
2023/05/30 00:06:16;;;;;;;17.73;3.15;;;;;;;;;;5012147;28;20057;-60
2023/05/30 00:08:42;;;;;;;11.50;2.78;;;;;;;;;;5004091;28;20049;-60
2023/05/30 00:11:09;;;;;;;11.95;3.08;;;;;;;;;;5014753;28;20125;-59
2023/05/30 00:13:35;;;;;;;18.23;3.72;;;;;;;;;;5013721;28;20547;-60
2023/05/30 00:16:03;;;;;;;15.32;3.38;;;;;;;;;;5012304;28;20522;-60
2023/05/30 00:18:34;;;;;;;18.30;3.85;;;;;;;;;;5001293;28;20049;-60
2023/05/30 00:21:02;;;;;;;9.98;2.90;;;;;;;;;;4995504;28;20108;-59
2023/05/30 00:23:29;;;;;;;13.43;3.13;;;;;;;;;;5013153;28;20053;-60
2023/05/30 00:25:59;;;;;;;10.00;3.08;;;;;;;;;;4996161;28;20413;-60
2023/05/30 00:28:25;;;;;;;12.20;3.80;;;;;;;;;;5013725;28;20220;-59
2023/05/30 00:30:51;;;;;;;14.52;3.75;;;;;;;;;;4997482;28;20136;-60
2023/05/30 00:33:17;;;;;;;13.80;3.28;;;;;;;;;;5014149;28;20050;-59
2023/05/30 00:35:43;;;;;;;13.93;3.65;;;;;;;;;;5014521;28;20056;-59
2023/05/30 00:38:09;;;;;;;14.02;3.47;;;;;;;;;;5013762;28;20046;-59
2023/05/30 00:40:35;;;;;;;10.13;3.60;;;;;;;;;;4997366;28;20502;-59
2023/05/30 00:43:02;;;;;;;12.63;3.15;;;;;;;;;;4997664;28;20042;-59
2023/05/30 00:45:27;;;;;;;12.32;3.42;;;;;;;;;;5013559;28;20433;-59
2023/05/30 00:47:54;;;;;;;15.85;4.05;;;;;;;;;;5014741;28;20042;-59
2023/05/30 00:50:20;;;;;;;11.73;3.45;;;;;;;;;;5014161;28;20042;-58
2023/05/30 00:52:47;;;;;;;18.45;3.78;;;;;;;;;;4997419;28;20053;-59
2023/05/30 00:55:14;;;;;;;13.73;2.95;;;;;;;;;;5014474;28;20060;-60
2023/05/30 00:57:40;;;;;;;5.75;2.40;;;;;;;;;;4997185;28;20533;-59
2023/05/30 01:00:07;;;;;;;10.25;3.25;;;;;;;;;;4997329;28;20402;-59
2023/05/30 01:02:33;;;;;;;17.70;3.15;;;;;;;;;;4996772;28;20058;-59
2023/05/30 01:05:02;;;;;;;13.82;2.90;;;;;;;;;;4996471;28;20494;-60
2023/05/30 01:07:29;;;;;;;14.45;2.92;;;;;;;;;;4996961;28;20046;-59
2023/05/30 01:09:55;;;;;;;11.23;3.88;;;;;;;;;;4997069;28;20046;-59
2023/05/30 01:12:37;;;;;;;16.42;4.22;;;;;;;;;;4996037;28;20046;-59
2023/05/30 01:15:12;;;;;;;11.25;3.50;;;;;;;;;;4997164;28;20050;-59
2023/05/30 01:17:42;;;;;;;13.45;2.95;;;;;;;;;;5014115;28;20132;-59
2023/05/30 01:20:18;;;;;;;9.07;3.28;;;;;;;;;;4996647;28;20545;-59
2023/05/30 01:23:08;;;;;;;14.32;3.53;;;;;;;;;;4996883;28;20479;-59
2023/05/30 01:26:05;;;;;;;10.60;3.13;;;10.60;99.90;;;;;;5013905;28;20054;-59
2023/05/30 01:28:33;;;;;;;17.60;4.38;;;;;;;;;;5014139;28;20453;-59
2023/05/30 01:31:00;;;;;;;15.63;3.60;;;;;;;;;;5012945;28;20046;-59
2023/05/30 01:33:26;;;;;;;15.57;4.35;;;;;;;;;;5013779;28;20096;-59
2023/05/30 01:35:52;;;;;;;17.58;4.20;;;;;;;;;;4996192;28;20082;-60
2023/05/30 01:38:18;;;;;;;10.13;3.45;;;;;;;;;;5013608;28;20050;-59
2023/05/30 01:40:48;;;;;;;17.30;3.30;;;;;;;;;;5013851;28;20057;-59
2023/05/30 01:43:32;;;;;;;12.43;3.80;;;10.80;99.90;;;;;;5013701;28;20048;-60
2023/05/30 01:45:58;;;;;;;14.27;4.47;;;;;;;;;;5013754;28;20073;-59
2023/05/30 01:48:42;;;;;;;15.18;3.55;;;;;;;;;;5013078;28;20057;-59
2023/05/30 01:51:11;;;;;;;13.18;3.67;;;;;;;;;;5013508;28;20132;-59
2023/05/30 01:53:42;;;;;;;15.25;3.85;;;;;;;;;;4996221;28;20060;-59
2023/05/30 01:56:09;;;;;;;8.48;3.45;;;;;;;;;;5012494;28;20042;-59
2023/05/30 01:58:37;;;;;;;11.73;4.32;;;;;;;;;;5013421;28;20046;-59
2023/05/30 02:01:04;;;;;;;11.38;4.35;;;;;;;;;;5013557;28;20053;-59
2023/05/30 02:03:31;;;;;;;9.63;3.85;;;;;;;;;;5012941;28;20058;-59
2023/05/30 02:05:57;;;;;;;7.13;2.60;;;;;;;;;;5013495;28;20065;-59
2023/05/30 02:08:23;;;;;;;13.40;3.30;;;;;;;;;;5013186;28;20056;-59
2023/05/30 02:10:49;;;;;;;8.88;2.72;;;;;;;;;;4995796;28;20124;-59
2023/05/30 02:13:15;;;;;;;16.80;3.58;;;;;;;;;;5013117;28;20060;-59
2023/05/30 02:15:41;;;;;;;11.77;2.80;;;;;;;;;;4995574;28;20045;-59
2023/05/30 02:18:08;;;;;;;16.05;3.22;;;;;;;;;;5012685;28;20046;-60
2023/05/30 02:20:34;;;;;;;12.75;3.13;;;;;;;;;;5011948;28;20100;-59
2023/05/30 02:23:01;;;;;;;13.02;3.28;;;;;;;;;;5013079;28;20057;-59
2023/05/30 02:25:27;;;;;;;10.48;3.40;;;;;;;;;;5012855;28;20409;-59
2023/05/30 02:27:53;;;;;;;9.98;3.58;;;;;;;;;;5012965;28;20057;-60
2023/05/30 02:30:19;;;;;;;11.00;3.08;;;;;;;;;;5012704;28;20046;-59
2023/05/30 02:32:45;;;;;;;14.52;3.65;;;;;;;;;;5012540;28;20054;-59
2023/05/30 02:35:11;;;;;;;12.40;2.97;;;;;;;;;;5013053;28;20107;-59
2023/05/30 02:37:39;;;;;;;13.65;3.22;;;;;;;;;;5012663;28;20041;-59
2023/05/30 02:40:11;;;;;;;9.82;2.83;;;;;;;;;;4995255;28;20520;-60
2023/05/30 02:42:37;;;;;;;12.10;3.08;;;;;;;;;;5012553;28;20049;-59
2023/05/30 02:45:04;;;;;;;11.32;3.13;;;;;;;;;;5012588;28;20077;-59
2023/05/30 02:47:30;;;;;;;7.45;3.45;;;;;;;;;;5012283;28;20057;-59
2023/05/30 02:49:56;;;;;;;11.23;3.50;;;;;;;;;;5012700;28;20045;-59
2023/05/30 02:52:22;;;;;;;9.20;3.25;;;;;;;;;;5011229;28;20046;-59
2023/05/30 02:54:48;;;;;;;9.20;3.70;;;;;;;;;;5012603;28;20046;-59
2023/05/30 02:57:15;;;;;;;18.38;4.75;;;;;;;;;;4994720;28;20049;-59
2023/05/30 02:59:41;;;;;;;14.77;4.03;;;;;;;;;;5012307;28;20546;-59
2023/05/30 03:02:09;;;;;;;12.65;3.85;;;;;;;;;;4994334;28;20524;-60
2023/05/30 03:04:36;;;;;;;10.23;3.38;;;;;;;;;;5012226;28;20132;-59
2023/05/30 03:07:02;;;;;;;9.48;4.30;;;;;;;;;;5012403;28;20129;-60
2023/05/30 03:09:28;;;;;;;13.77;4.05;;;;;;;;;;5012123;28;20129;-59
2023/05/30 03:11:55;;;;;;;12.23;3.75;;;;;;;;;;5012312;28;20046;-59
2023/05/30 03:14:21;;;;;;;14.68;4.07;;;;;;;;;;5011932;28;20073;-60
2023/05/30 03:16:48;;;;;;;10.73;3.55;;;;;;;;;;5011971;28;20176;-60
2023/05/30 03:19:14;;;;;;;8.52;2.97;;;;;;;;;;5011951;28;20064;-60
2023/05/30 03:21:41;;;;;;;15.23;3.50;;;;;;;;;;4994618;28;20037;-59
2023/05/30 03:24:07;;;;;;;13.32;3.30;;;;;;;;;;5012111;28;20084;-59
2023/05/30 03:26:33;;;;;;;12.88;2.90;;;;;;;;;;5011761;28;20045;-59
2023/05/30 03:28:59;;;;;;;20.80;3.28;;;;;;;;;;5011803;28;20129;-59
2023/05/30 03:31:27;;;;;;;10.93;3.33;;;;;;;;;;5011411;28;20100;-58
2023/05/30 03:33:53;;;;;;;16.52;4.13;;;;;;;;;;4994637;28;20057;-59
2023/05/30 03:36:20;;;;;;;9.95;3.38;;;;;;;;;;5013729;28;20077;-59
2023/05/30 03:38:46;;;;;;;15.10;3.50;;;;;;;;;;4998716;28;20064;-60
2023/05/30 03:41:12;;;;;;;12.73;3.72;;;;;;;;;;5015997;28;20120;-59
2023/05/30 03:43:38;;;;;;;11.00;3.30;;;;;;;;;;4998501;28;20049;-59
2023/05/30 03:46:04;;;;;;;13.02;4.03;;;;;;;;;;5015771;28;20049;-59
2023/05/30 03:48:30;;;;;;;11.68;4.03;;;;;;;;;;5015555;28;20054;-59
2023/05/30 03:50:58;;;;;;;20.00;3.75;;;;;;;;;;5015936;28;20400;-59
2023/05/30 03:53:24;;;;;;;13.70;3.85;;;;;;;;;;5015567;28;20054;-59
2023/05/30 03:55:50;;;;;;;13.38;3.75;;;;;;;;;;5015595;28;20129;-59
2023/05/30 03:58:16;;;;;;;16.55;3.47;;;;;;;;;;5015455;28;20468;-60
2023/05/30 04:00:42;;;;;;;10.40;2.88;;;;;;;;;;5015421;28;20402;-59
2023/05/30 04:03:08;;;;;;;20.67;3.70;;;;;;;;;;5015456;28;20065;-59
2023/05/30 04:05:34;;;;;;;15.20;3.83;;;;;;;;;;5015458;28;20061;-59
2023/05/30 04:08:00;;;;;;;15.55;3.25;;;;;;;;;;4998009;28;20058;-59
2023/05/30 04:10:26;;;;;;;10.52;3.22;;;;;;;;;;5015167;28;20064;-59
2023/05/30 04:12:52;;;;;;;18.00;3.90;;;;;;;;;;4998088;28;20054;-60
2023/05/30 04:15:18;;;;;;;13.10;3.10;;;;;;;;;;5015054;28;20049;-59
2023/05/30 04:17:45;;;;;;;15.48;3.75;;;;;;;;;;5015319;28;20068;-59
2023/05/30 04:20:12;;;;;;;17.48;4.30;;;;;;;;;;5015176;28;20045;-59
2023/05/30 04:22:38;;;;;;;16.77;3.72;;;;;;;;;;5015427;28;20452;-60
2023/05/30 04:25:05;;;;;;;20.05;4.20;;;;;;;;;;4997844;28;20052;-59
2023/05/30 04:27:32;;;;;;;22.52;4.90;;;;;;;;;;5015027;28;20057;-59
2023/05/30 04:30:03;;;;;;;12.43;3.17;;;;;;;;;;4997598;28;20046;-59
2023/05/30 04:32:33;;;;;;;17.02;4.28;;;;;;;;;;5014954;28;20405;-60
2023/05/30 04:35:00;;;;;;;17.13;4.32;;;;;;;;;;5015131;28;20060;-59
2023/05/30 04:37:27;;;;;;;15.73;4.93;;;;;;;;;;5014783;28;20054;-60
2023/05/30 04:39:55;;;;;;;10.93;3.35;;;;;;;;;;4997446;28;20406;-60
2023/05/30 04:42:26;;;;;;;13.80;3.85;;;;;;;;;;5014182;28;20480;-61
2023/05/30 04:44:53;;;;;;;16.00;3.90;;;;;;;;;;5015118;28;20050;-60
2023/05/30 04:47:21;;;;;;;15.75;3.42;;;;;;;;;;4997221;28;20515;-59
2023/05/30 04:49:48;;;;;;;15.80;3.35;;;;;;;;;;5014758;28;20140;-60
2023/05/30 04:52:16;;;;;;;17.23;3.47;;;;;;;;;;4997067;28;20525;-60
2023/05/30 04:54:42;;;;;;;15.30;4.00;;;;;;;;;;5014828;28;20065;-60
2023/05/30 04:57:08;;;;;;;18.75;4.15;;;;;;;;;;4996856;28;20049;-59
2023/05/30 04:59:35;;;;;;;10.70;3.08;;;;;;;;;;4997155;28;20049;-59
2023/05/30 05:02:01;;;;;;;15.20;4.22;;;;;;;;;;4997116;28;20513;-59
2023/05/30 05:04:27;;;;;;;13.25;3.22;;;;;;;;;;5014097;28;20498;-60
2023/05/30 05:06:53;;;;;;;14.80;4.15;;;;;;;;;;5014184;28;20078;-59
2023/05/30 05:09:21;;;;;;;14.48;3.80;;;;;;;;;;4996774;28;20505;-59
2023/05/30 05:11:47;;;;;;;20.75;5.47;;;;;;;;;;5012664;28;20486;-60
2023/05/30 05:14:13;;;;;;;13.30;3.75;;;;;;;;;;5013954;28;20053;-64
2023/05/30 05:16:39;;;;;;;16.42;3.63;;;;;;;;;;5012884;28;20490;-59
2023/05/30 05:19:05;;;;;;;13.32;4.50;;;;;;;;;;5014149;28;20163;-59
2023/05/30 05:21:31;;;;;;;10.48;3.15;;;;;;;;;;5013753;28;20632;-59
2023/05/30 05:23:57;;;;;;;15.32;3.38;;;;;;;;;;5014251;28;20170;-59
2023/05/30 05:26:24;;;;;;;16.63;3.95;;;;;;;;;;5013512;28;20169;-59
2023/05/30 05:28:50;;;;;;;15.48;4.82;;;;;;;;;;4996790;28;20088;-59
2023/05/30 05:31:17;;;;;;;17.55;3.78;;;;;;;;;;5012621;28;20132;-61
2023/05/30 05:33:43;;;;;;;15.73;4.30;;;;;;;;;;5013984;28;20038;-60
2023/05/30 05:36:09;;;;;;;15.05;3.67;;;;;;;;;;5012635;28;20044;-59
2023/05/30 05:38:35;;;;;;;13.73;3.15;;;;;;;;;;5013740;28;20129;-59
2023/05/30 05:41:01;;;;;;;13.27;3.72;;;;;;;;;;4996378;28;20049;-59
2023/05/30 05:43:27;;;;;;;8.88;3.55;;;;;;;;;;4996312;28;20058;-60
2023/05/30 05:45:53;;;;;;;10.20;3.47;;;;;;;;;;5013757;28;20104;-60
2023/05/30 05:48:19;;;;;;;14.57;4.13;;;;;;;;;;5013421;28;20046;-59
2023/05/30 05:50:45;;;;;;;16.90;3.50;;;;;;;;;;5012696;28;20089;-60
2023/05/30 05:53:11;;;;;;;10.35;3.28;;;;;;;;;;5013754;28;20050;-60
2023/05/30 05:55:37;;;;;;;11.88;3.03;;;;;;;;;;5013071;28;20049;-60
2023/05/30 05:58:03;;;;;;;17.70;3.70;;;;;;;;;;4995617;28;20054;-59
2023/05/30 06:00:30;;;;;;;11.05;3.40;;;;;;;;;;5013235;28;20561;-60
2023/05/30 06:02:56;;;;;;;10.95;2.90;;;;;;;;;;4995678;28;20129;-60
2023/05/30 06:05:22;;;;;;;9.95;2.58;;;;;;;;;;5013320;28;20100;-59
2023/05/30 06:07:48;;;;;;;16.27;3.65;;;;;;;;;;5013352;28;20045;-60
2023/05/30 06:10:14;;;;;;;9.60;3.05;;;;;;;;;;4995233;28;20058;-60
2023/05/30 06:12:40;;;;;;;14.68;2.80;;;;;;;;;;5012142;28;20045;-60
2023/05/30 06:15:07;;;;;;;15.18;3.40;;;;;;;;;;5013191;28;20050;-60
2023/05/30 06:17:33;;;;;;;10.70;2.90;;;;;;;;;;5011669;28;20050;-59
2023/05/30 06:19:59;;;;;;;9.63;3.65;;;;;;;;;;5013311;28;20057;-59
2023/05/30 06:22:25;;;;;;;11.10;3.08;;;;;;;;;;5013001;28;20173;-59
2023/05/30 06:24:51;;;;;;;13.13;3.15;;;;;;;;;;5012698;28;20060;-59
2023/05/30 06:27:17;;;;;;;9.90;3.05;;;;;;;;;;4995459;28;20056;-59
2023/05/30 06:29:43;;;;;;;10.80;2.85;;;;;;;;;;5012986;28;20093;-59
2023/05/30 06:32:09;;;;;;;10.18;3.30;;;;;;;;;;5012917;28;20089;-59
2023/05/30 06:34:35;;;;;;;9.57;3.03;;;;;;;;;;5012835;28;20049;-60
2023/05/30 06:37:01;;;;;;;10.38;2.72;;;;;;;;;;5012862;28;20162;-61
2023/05/30 06:39:27;;;;;;;14.20;3.30;;;;;;;;;;5011125;28;20050;-59
2023/05/30 06:41:53;;;;;;;8.88;2.55;;;;;;;;;;5011567;28;20053;-60
2023/05/30 06:44:20;;;;;;;7.53;2.17;;;;;;;;;;5012462;28;20046;-59
2023/05/30 06:46:46;;;;;;;7.40;2.22;;;;;;;;;;5012500;28;20050;-59
2023/05/30 06:49:12;;;;;;;8.52;2.63;;;;;;;;;;5012884;28;20046;-60
2023/05/30 06:51:38;;;;;;;9.50;2.70;;;;;;;;;;5012645;28;20056;-60
2023/05/30 06:54:04;;;;;;;7.60;2.70;;;;;;;;;;5012416;28;20140;-60
2023/05/30 06:56:30;;;;;;;8.77;2.65;;;;;;;;;;4994683;28;20077;-59
2023/05/30 06:58:57;;;;;;;7.88;2.45;;;;;;;;;;4995237;28;20527;-60
2023/05/30 07:01:23;;;;;;;6.82;2.42;;;;;;;;;;4994677;28;20092;-60
2023/05/30 07:03:49;;;;;;;10.20;2.45;;;;;;;;;;5011348;28;20103;-60
2023/05/30 07:06:15;;;;;;;14.20;2.75;;;;;;;;;;5012343;28;20057;-60
2023/05/30 07:08:41;;;;;;;14.05;3.15;;;;;;;;;;5010942;28;20038;-60
2023/05/30 07:11:07;;;;;;;8.30;2.25;;;;;;;;;;5011554;28;20067;-60
2023/05/30 07:13:33;;;;;;;6.50;2.80;;;;;;;;;;5011939;28;20053;-60
2023/05/30 07:15:59;;;;;;;8.77;2.67;;;;;;;;;;4994549;28;20049;-60
2023/05/30 07:18:25;;;;;;;11.80;2.92;;;;;;;;;;4994593;28;20085;-60
2023/05/30 07:20:52;;;;;;;9.90;2.80;;;;;;;;;;4995064;28;20049;-61
2023/05/30 07:23:18;;;;;;;10.27;2.17;;;;;;;;;;4994255;28;20049;-60
2023/05/30 07:25:44;;;;;;;6.55;3.22;;;;;;;;;;5012160;28;20038;-60
2023/05/30 07:28:11;;;;;;;7.32;1.92;;;;;;;;;;4994739;28;20072;-60
2023/05/30 07:30:37;;;;;;;6.45;2.13;;;;;;;;;;5010624;28;20053;-60
2023/05/30 07:33:03;;;;;;;5.15;2.13;;;;;;;;;;5012170;28;20069;-60
2023/05/30 07:35:29;;;;;;;7.82;1.80;;;;;;;;;;4994543;28;20077;-60
2023/05/30 07:37:55;;;;;;;6.60;1.67;;;;;;;;;;4994159;28;20100;-60
2023/05/30 07:40:21;;;;;;;7.40;1.60;;;;;;;;;;5011772;28;20046;-60
2023/05/30 07:42:47;;;;;;;6.53;1.50;;;;;;;;;;4994669;28;20081;-60
2023/05/30 07:45:14;;;;;;;9.38;1.95;;;;;;;;;;5011480;28;20583;-61
2023/05/30 07:47:40;;;;;;;5.68;2.10;;;;;;;;;;4994821;28;20398;-60
2023/05/30 07:50:06;;;;;;;6.10;1.92;;;;;;;;;;5012044;28;20060;-60
2023/05/30 07:52:33;;;;;;;7.65;2.10;;;;;;;;;;5011567;28;20897;-60
2023/05/30 07:54:59;;;;;;;10.38;2.00;;;;;;;;;;4994606;28;20112;-60
2023/05/30 07:57:25;;;;;;;5.63;2.00;;;;;;;;;;4994046;28;20153;-60
2023/05/30 07:59:51;;;;;;;6.38;1.77;;;;;;;;;;5011592;28;20054;-60
2023/05/30 08:02:18;;;;;;;10.55;3.05;;;;;;;;;;5011542;28;20053;-60
2023/05/30 08:04:44;;;;;;;4.53;1.60;;;;;;;;;;4994453;28;20057;-60
2023/05/30 08:07:10;;;;;;;8.05;2.50;;;;;;;;;;4993923;28;20613;-60
2023/05/30 08:09:36;;;;;;;4.25;1.48;;;;;;;;;;4994234;28;20068;-59
2023/05/30 08:12:04;;;;;;;7.80;1.92;;;;;;;;;;4994324;28;20057;-60
2023/05/30 08:14:31;;;;;;;5.85;1.70;;;;;;;;;;4993676;28;20050;-60
2023/05/30 08:16:57;;;;;;;3.47;1.65;;;;;;;;;;5010561;28;20050;-60
2023/05/30 08:19:23;;;;;;;8.25;2.22;;;;;;;;;;4994128;28;20116;-60
2023/05/30 08:21:49;;;;;;;7.40;1.73;;;;;;;;;;5012306;28;20049;-60
2023/05/30 08:24:15;;;;;;;5.88;2.22;;;;;;;;;;5014040;28;20050;-60
2023/05/30 08:26:41;;;;;;;8.70;2.25;;;;;;;;;;5015211;28;20050;-60
2023/05/30 08:29:08;;;;;;;6.75;1.98;;;;;;;;;;5014221;28;20050;-60
2023/05/30 08:31:34;;;;;;;6.90;1.85;;;;;;;;;;4997556;28;20049;-60
2023/05/30 08:34:05;;;;;;;5.80;2.08;;;;;;;;;;5015220;28;20111;-60
2023/05/30 08:36:32;;;;;;;10.75;1.90;;;;;;;;;;5014616;28;20479;-60
2023/05/30 08:38:58;;;;;;;7.30;2.58;;;;;;;;;;4997714;28;20057;-60
2023/05/30 08:41:25;;;;;;;5.30;2.35;;;;;;;;;;5013494;28;20049;-60
2023/05/30 08:43:51;;;;;;;6.03;2.00;;;;;;;;;;5015116;28;20045;-60
2023/05/30 08:46:18;;;;;;;7.28;2.22;;;;;;;;;;5013518;28;20041;-59
2023/05/30 08:48:45;;;;;;;6.20;2.05;;;;;;;;;;5013372;28;20053;-60
2023/05/30 08:51:13;;;;;;;8.05;2.75;;;;;;;;;;4997538;28;20100;-59
2023/05/30 08:53:43;;;;;;;5.47;1.83;;;;;;;;;;4997416;28;20050;-60
2023/05/30 08:56:11;;;;;;;4.22;1.98;;;;;;;;;;5013369;28;20200;-59
2023/05/30 08:58:40;;;;;;;3.97;1.75;;;;;;;;;;4997038;28;20418;-60
2023/05/30 09:01:06;;;;;;;4.63;1.80;;;;;;;;;;5014627;28;20129;-60
2023/05/30 09:03:33;;;;;;;5.80;2.40;;;;;;;;;;5013714;28;20394;-60
2023/05/30 09:06:00;;;;;;;4.07;2.25;;;;;;;;;;4997153;28;20188;-60
2023/05/30 09:08:27;;;;;;;6.75;1.63;;;;;;;;;;5014195;28;20473;-60
2023/05/30 09:10:57;;;;;;;3.22;1.70;;;;;;;;;;5013444;28;20050;-60
2023/05/30 09:13:23;;;;;;;2.92;1.30;;;;;;;;;;4997007;28;20042;-60
2023/05/30 09:15:49;;;;;;;7.00;1.50;;;;;;;;;;4997000;28;20572;-60
2023/05/30 09:18:18;;;;;;;9.07;2.70;;;;;;;;;;5013758;28;20045;-59
2023/05/30 09:20:44;;;;;;;4.47;1.73;;;;;;;;;;4996875;28;20046;-60
2023/05/30 09:23:10;;;;;;;2.92;1.25;;;;;;;;;;4996810;28;20049;-60
2023/05/30 09:25:42;;;;;;;4.53;1.67;;;;;;;;;;5014164;28;20423;-61
2023/05/30 09:28:09;;;;;;;4.18;1.35;;;;;;;;;;5014261;28;20038;-59
2023/05/30 09:30:35;;;;;;;4.07;1.60;;;;;;;;;;5013909;28;20048;-60
2023/05/30 09:33:04;;;;;;;2.63;1.65;;;;;;;;;;5012950;28;20068;-59
2023/05/30 09:35:30;;;;;;;3.78;1.90;;;;;;;;;;5013554;28;20049;-60
2023/05/30 09:37:56;;;;;;;3.70;1.20;;;;;;;;;;5013982;28;20132;-60
2023/05/30 09:40:23;;;;;;;5.25;2.03;;;;;;;;;;5013839;28;20132;-60
2023/05/30 09:42:50;;;;;;;8.25;1.52;;;;;;;;;;5013922;28;20050;-60
2023/05/30 09:45:18;;;;;;;3.80;1.48;;;;;;;;;;5013627;28;20103;-61
2023/05/30 09:47:45;;;;;;;3.70;1.50;;;;;;;;;;5013316;28;20387;-60
2023/05/30 09:50:13;;;;;;;8.02;2.08;;;;;;;;;;5013598;28;20124;-61
2023/05/30 09:52:40;;;;;;;4.25;1.73;;;;;;;;;;5013826;28;20398;-60
2023/05/30 09:55:07;;;;;;;3.33;1.92;;;;;;;;;;5013917;28;20410;-60
2023/05/30 09:57:37;;;;;;;4.75;2.00;;;;;;;;;;5013206;28;20042;-60
2023/05/30 10:00:06;;;;;;;3.58;1.60;;;;;;;;;;4996390;28;20413;-60
2023/05/30 10:02:32;;;;;;;5.28;1.25;;;;;;;;;;4995228;28;20061;-60
2023/05/30 10:04:59;;;;;;;3.40;1.30;;;;;;;;;;5013519;28;20116;-61
2023/05/30 10:07:25;;;;;;;5.55;1.20;;;;;;;;;;4995951;28;20287;-60
2023/05/30 10:09:52;;;;;;;3.42;1.15;;;;;;;;;;5013477;28;20053;-60
2023/05/30 10:12:18;;;;;;;3.05;1.80;;;;;;;;;;5012943;28;20060;-60
2023/05/30 10:14:44;;;;;;;2.25;1.10;;;;;;;;;;5013348;28;20057;-59
2023/05/30 10:17:14;;;;;;;4.68;1.33;;;;;;;;;;5012738;28;20053;-59
2023/05/30 10:20:07;;;;;;;2.28;1.10;;;;;;;;;;4995716;28;20042;-59
2023/05/30 10:22:40;;;;;;;2.75;1.05;;;;;;;;;;5012726;28;20529;-60
2023/05/30 10:25:07;;;;;;;2.17;1.13;;;;;;;;;;4995901;28;20052;-61
2023/05/30 10:27:35;;;;;;;2.00;1.15;;;;;;;;;;5011497;28;20046;-60
2023/05/30 10:30:04;;;;;;;2.42;0.98;;;;;;;;;;5013210;28;20048;-60
2023/05/30 10:32:31;;;;;;;2.28;1.17;;;;;;;;;;4995093;28;20157;-61
2023/05/30 10:35:05;;;;;;;1.60;1.00;;;;;;;;;;5013055;28;20061;-60
2023/05/30 10:37:31;;;;;;;2.95;1.00;;;;;;;;;;5012539;28;20132;-60
2023/05/30 10:40:01;;;;;;;5.90;1.58;;;;;;;;;;4995483;28;20064;-61
2023/05/30 10:42:35;;;;;;;3.03;1.83;;;;;;;;;;5012766;28;20107;-60
2023/05/30 10:45:15;;;;;;;2.10;1.17;;;;;;;;;;5012416;28;20042;-60
2023/05/30 10:47:49;;;;;;;2.58;1.13;;;;;;;;;;4995528;28;20054;-60
2023/05/30 10:50:24;;;;;;;1.83;1.27;;;;;;;;;;4995017;28;20050;-60
2023/05/30 10:52:54;;;;;;;3.38;1.20;;;;;;;;;;5012807;28;20061;-60
2023/05/30 10:55:20;;;;;;;2.08;1.38;;;;;;;;;;5012495;28;20079;-60
2023/05/30 10:57:46;;;;;;;2.35;1.33;;;;;;;;;;4994927;28;20046;-59
2023/05/30 11:00:21;;;;;;;2.17;1.10;;;;;;;;;;5012172;28;20056;-60
2023/05/30 11:02:51;;;;;;;2.50;1.27;;;;;;;;;;5012649;28;20068;-60
2023/05/30 11:05:30;;;;;;;3.85;1.42;;;;;;;;;;5010990;28;20139;-60
2023/05/30 11:07:58;;;;;;;3.05;1.30;;;;;;;;;;4995197;28;20050;-60
2023/05/30 11:10:25;;;;;;;3.80;1.30;;;;;;;;;;4994847;28;20072;-60
2023/05/30 11:12:52;;;;;;;1.63;1.17;;;;;;;;;;5011240;28;20042;-60
2023/05/30 11:15:31;;;;;;;2.30;1.20;;;;;;;;;;5011754;28;20046;-60
2023/05/30 11:17:57;;;;;;;4.82;1.10;;;;;;;;;;5010979;28;20050;-60
2023/05/30 11:20:23;;;;;;;3.85;1.63;;;;;;;;;;5012266;28;20041;-60
2023/05/30 11:23:01;;;;;;;1.60;1.10;;;;;;;;;;4994573;28;20060;-60
2023/05/30 11:25:28;;;;;;;2.13;1.25;;;;;;;;;;5012096;28;20049;-61
2023/05/30 11:28:04;;;;;;;3.92;1.45;;;;;;;;;;4994510;28;20081;-62
2023/05/30 11:30:35;;;;;;;2.40;1.58;;;;;;;;;;4994349;28;20054;-61
2023/05/30 11:33:01;;;;;;;3.40;1.27;;;;;;;;;;4995005;28;20505;-60
2023/05/30 11:35:27;;;;;;;2.47;1.00;;;;;;;;;;4994501;28;20050;-61
2023/05/30 11:37:56;;;;;;;1.40;0.90;;;;;;;;;;5012050;28;20048;-61
2023/05/30 11:40:23;;;;;;;2.15;0.90;;;;;;;;;;4994478;28;20056;-60
2023/05/30 11:42:55;;;;;;;2.92;0.98;;;;;;;;;;5011548;28;20042;-60
2023/05/30 11:45:29;;;;;;;2.42;1.15;;;;;;;;;;5011834;28;20509;-60
2023/05/30 11:48:08;;;;;;;2.38;0.93;;;;;;;;;;4994563;28;20049;-60
2023/05/30 11:50:38;;;;;;;2.38;1.00;;;;;;;;;;5011808;28;20099;-60
2023/05/30 11:53:09;;;;;;;3.20;1.25;;;;;;;;;;5012024;28;20061;-60
2023/05/30 11:55:36;;;;;;;3.00;1.10;;;;;;;;;;4994332;28;20046;-60
2023/05/30 11:58:02;;;;;;;4.18;1.85;;;;;;;;;;5014729;28;20046;-61
2023/05/30 12:00:28;;;;;;;2.90;1.20;;;;;;;;;;5015745;28;20397;-62
2023/05/30 12:02:54;;;;;;;2.72;1.42;;;;;;;;;;4998231;28;20061;-61
2023/05/30 12:05:21;;;;;;;2.30;1.17;;;;;;;;;;5015384;28;20515;-60
2023/05/30 12:07:51;;;;;;;2.13;1.17;;;;;;;;;;4998148;28;20080;-61
2023/05/30 12:10:17;;;;;;;;;;;;;;;;;;5015968;28;20089;-61
2023/05/30 12:12:44;;;;;;;4.32;1.20;;;;;;;;;;5015219;28;19968;-61
2023/05/30 12:15:11;;;;;;;3.15;1.60;;;;;;;;;;5015544;28;20046;-60
2023/05/30 12:17:41;;;;;;;3.03;1.48;;;;;;;;;;5015064;28;20100;-60
2023/05/30 12:20:09;;;;;;;3.72;1.30;;;;;;;;;;5015530;28;20093;-60
2023/05/30 12:22:35;;;;;;;4.55;1.73;;;;;;;;;;5015290;28;20405;-60
2023/05/30 12:25:09;;;;;;;3.13;1.50;;;;;;;;;;4998015;28;20132;-60
2023/05/30 12:27:35;;;;;;;3.83;1.23;;;;;;;;;;5014732;28;20460;-61
2023/05/30 12:30:14;;;;;;;4.22;1.08;;;;;;;;;;5015128;28;20511;-60
2023/05/30 12:32:40;;;;;;;1.98;1.00;;;;;;;;;;5015121;28;20041;-60
2023/05/30 12:35:07;;;;;;;2.33;1.20;;;;;;;;;;5015223;28;20080;-62
2023/05/30 12:37:33;;;;;;;1.90;1.10;;;;;;;;;;5014679;28;20250;-61
2023/05/30 12:40:00;;;;;;;4.20;1.00;;;;;;;;;;4997890;28;20050;-61
2023/05/30 12:42:27;;;;;;;3.15;1.75;;;;;;;;;;5014380;28;20041;-61
2023/05/30 12:44:56;;;;;;;2.90;1.05;;;;;;;;;;5014951;28;20406;-60
2023/05/30 12:47:23;;;;;;;3.00;1.40;;;;;;;;;;5013308;28;20050;-61
2023/05/30 12:49:49;;;;;;;3.47;1.10;;;;;;;;;;5014980;28;20089;-60
2023/05/30 12:52:16;;;;;;;2.55;1.10;;;;;;;;;;5014560;28;20053;-61
2023/05/30 12:54:42;;;;;;;3.63;1.50;;;;;;;;;;5014849;28;20049;-61
2023/05/30 12:57:09;;;;;;;3.15;1.50;;;;;;;;;;5014394;28;20145;-60
2023/05/30 12:59:36;;;;;;;2.55;1.48;;;;;;;;;;5014394;28;20050;-61
2023/05/30 13:02:02;;;;;;;3.67;1.40;;;;;;;;;;5014646;28;20112;-61
2023/05/30 13:04:28;;;;;;;4.22;1.42;;;;;;;;;;5014368;28;20050;-60
2023/05/30 13:06:55;;;;;;;2.45;1.48;;;;;;;;;;5014661;28;20405;-61
2023/05/30 13:09:21;;;;;;;4.68;2.00;;;;;;;;;;4995638;28;20058;-61
2023/05/30 13:11:48;;;;;;;2.20;1.42;;;;;;;;;;5014331;28;20049;-61
2023/05/30 13:14:14;;;;;;;3.67;1.20;;;;;;;;;;5014112;28;20074;-61
2023/05/30 13:16:41;;;;;;;2.75;1.15;;;;;;;;;;4997048;28;20464;-61
2023/05/30 13:19:09;;;;;;;4.20;1.33;;;;;;;;;;5014391;28;20050;-61
2023/05/30 13:21:36;;;;;;;1.83;1.08;;;;;;;;;;5014107;28;20049;-60
2023/05/30 13:24:02;;;;;;;4.63;1.50;;;;;;;;;;5014239;28;20050;-61
2023/05/30 13:26:28;;;;;;;2.90;1.25;;;;;;;;;;5013541;28;20042;-60
2023/05/30 13:28:54;;;;;;;2.92;1.23;;;;;;;;;;5014180;28;20052;-60
2023/05/30 13:31:20;;;;;;;1.73;1.10;;;;;;;;;;5013971;28;20136;-60
2023/05/30 13:33:46;;;;;;;2.90;1.23;;;;;;;;;;5014091;28;20049;-60
2023/05/30 13:36:12;;;;;;;2.10;1.00;;;;;;;;;;5013923;28;20061;-61
2023/05/30 13:38:42;;;;;;;3.97;1.33;;;;;;;;;;4996626;28;20054;-61
2023/05/30 13:41:10;;;;;;;;;;;16.40;99.90;;;;;;5013188;28;20397;-61
2023/05/30 13:43:36;;;;;;;3.50;1.13;;;;;;;;;;5013473;28;19928;-60
2023/05/30 13:46:02;;;;;;;4.95;1.25;;;;;;;;;;5014034;28;20054;-61
2023/05/30 13:48:28;;;;;;;3.95;1.35;;;;;;;;;;4996230;28;20058;-61
2023/05/30 13:50:54;;;;;;;4.20;1.50;;;;;;;;;;4996407;28;20089;-61
2023/05/30 13:53:20;;;;;;;4.45;1.23;;;;;;;;;;5013009;28;20132;-61
2023/05/30 13:55:46;;;;;;;2.80;1.25;;;;;;;;;;5013529;28;20045;-61
2023/05/30 13:58:12;;;;;;;3.17;1.40;;;;;;;;;;5013363;28;20050;-61
2023/05/30 14:00:38;;;;;;;2.38;1.60;;;;;;;;;;5013685;28;20052;-61
2023/05/30 14:03:04;;;;;;;3.50;1.30;;;;;;;;;;5013430;28;20053;-61
2023/05/30 14:05:31;;;;;;;2.10;1.33;;;;;;;;;;4995669;28;20050;-61
2023/05/30 14:07:57;;;;;;;2.08;1.20;;;;;;;;;;5013182;28;20065;-61
2023/05/30 14:10:23;;;;;;;2.30;1.35;;;;;;;;;;5013177;28;20042;-61
2023/05/30 14:12:49;;;;;;;4.07;1.55;;;;;;;;;;4995872;28;20053;-61
2023/05/30 14:15:16;;;;;;;3.67;1.45;;;;;;;;;;4995853;28;20494;-61
2023/05/30 14:17:42;;;;;;;5.20;1.50;;;;;;;;;;5013184;28;20045;-62
2023/05/30 14:20:10;;;;;;;2.92;1.52;;;;;;;;;;4995472;28;20049;-61
2023/05/30 14:22:36;;;;;;;4.13;1.02;;;;;;;;;;5012547;28;20054;-61
2023/05/30 14:25:02;;;;;;;2.08;1.20;;;;;;;;;;4995651;28;20057;-61
2023/05/30 14:27:30;;;;;;;2.22;1.30;;;;;;;;;;4995580;28;20073;-61
2023/05/30 14:29:56;;;;;;;3.38;1.13;;;;;;;;;;5011907;28;20061;-61
2023/05/30 14:32:22;;;;;;;1.83;0.90;;;;;;;;;;5012746;28;20053;-61
2023/05/30 14:34:48;;;;;;;2.47;1.00;;;;;;;;;;4995568;28;20129;-60
2023/05/30 14:37:14;;;;;;;2.05;1.00;;;;;;;;;;5012047;28;20125;-62